sensor_id;sensor_type;location;lat;lon;timestamp;P1;durP1;ratioP1;P2;durP2;ratioP2
12990;SDS011;6560;57.692;11.958;2022-11-14T00:02:04;2.23;;;2.03;;
12990;SDS011;6560;57.692;11.958;2022-11-14T00:04:30;3.73;;;1.93;;
12990;SDS011;6560;57.692;11.958;2022-11-14T00:06:55;2.30;;;1.70;;
12990;SDS011;6560;57.692;11.958;2022-11-14T00:09:27;3.37;;;1.63;;
12990;SDS011;6560;57.692;11.958;2022-11-14T00:11:53;2.60;;;1.33;;
12990;SDS011;6560;57.692;11.958;2022-11-14T00:14:19;2.87;;;1.37;;
12990;SDS011;6560;57.692;11.958;2022-11-14T00:16:45;2.80;;;1.40;;
12990;SDS011;6560;57.692;11.958;2022-11-14T00:19:10;1.57;;;1.43;;
12990;SDS011;6560;57.692;11.958;2022-11-14T00:21:36;2.40;;;1.37;;
12990;SDS011;6560;57.692;11.958;2022-11-14T00:24:02;1.47;;;1.30;;
12990;SDS011;6560;57.692;11.958;2022-11-14T00:26:28;2.13;;;1.60;;
12990;SDS011;6560;57.692;11.958;2022-11-14T00:28:54;1.97;;;1.33;;
12990;SDS011;6560;57.692;11.958;2022-11-14T00:31:19;1.87;;;1.60;;
12990;SDS011;6560;57.692;11.958;2022-11-14T00:33:45;4.30;;;1.57;;
12990;SDS011;6560;57.692;11.958;2022-11-14T00:36:11;1.30;;;0.97;;
12990;SDS011;6560;57.692;11.958;2022-11-14T00:38:36;1.80;;;1.13;;
12990;SDS011;6560;57.692;11.958;2022-11-14T00:41:02;2.43;;;1.33;;
12990;SDS011;6560;57.692;11.958;2022-11-14T00:43:27;1.47;;;1.03;;
12990;SDS011;6560;57.692;11.958;2022-11-14T00:45:53;3.03;;;1.30;;
12990;SDS011;6560;57.692;11.958;2022-11-14T00:48:18;1.33;;;1.23;;
12990;SDS011;6560;57.692;11.958;2022-11-14T00:50:44;2.07;;;1.10;;
12990;SDS011;6560;57.692;11.958;2022-11-14T00:53:10;2.40;;;1.40;;
12990;SDS011;6560;57.692;11.958;2022-11-14T00:55:35;2.63;;;1.20;;
12990;SDS011;6560;57.692;11.958;2022-11-14T00:58:01;1.93;;;1.40;;
12990;SDS011;6560;57.692;11.958;2022-11-14T01:00:26;2.70;;;1.40;;
12990;SDS011;6560;57.692;11.958;2022-11-14T01:02:52;1.30;;;1.20;;
12990;SDS011;6560;57.692;11.958;2022-11-14T01:05:21;1.30;;;1.20;;
12990;SDS011;6560;57.692;11.958;2022-11-14T01:07:47;4.33;;;1.50;;
12990;SDS011;6560;57.692;11.958;2022-11-14T01:10:13;1.40;;;1.23;;
12990;SDS011;6560;57.692;11.958;2022-11-14T01:12:39;2.03;;;1.40;;
12990;SDS011;6560;57.692;11.958;2022-11-14T01:15:05;2.17;;;1.17;;
12990;SDS011;6560;57.692;11.958;2022-11-14T01:17:30;1.40;;;1.30;;
12990;SDS011;6560;57.692;11.958;2022-11-14T01:19:56;1.50;;;1.40;;
12990;SDS011;6560;57.692;11.958;2022-11-14T01:22:21;4.43;;;1.70;;
12990;SDS011;6560;57.692;11.958;2022-11-14T01:24:47;2.37;;;1.53;;
12990;SDS011;6560;57.692;11.958;2022-11-14T01:27:12;1.60;;;1.50;;
12990;SDS011;6560;57.692;11.958;2022-11-14T01:29:37;1.20;;;1.10;;
12990;SDS011;6560;57.692;11.958;2022-11-14T01:32:03;3.23;;;1.50;;
12990;SDS011;6560;57.692;11.958;2022-11-14T01:34:29;1.33;;;1.23;;
12990;SDS011;6560;57.692;11.958;2022-11-14T01:36:54;3.40;;;1.50;;
12990;SDS011;6560;57.692;11.958;2022-11-14T01:39:19;2.33;;;1.30;;
12990;SDS011;6560;57.692;11.958;2022-11-14T01:41:45;2.43;;;1.40;;
12990;SDS011;6560;57.692;11.958;2022-11-14T01:44:14;1.20;;;1.10;;
12990;SDS011;6560;57.692;11.958;2022-11-14T01:46:41;1.60;;;1.50;;
12990;SDS011;6560;57.692;11.958;2022-11-14T01:51:41;1.43;;;1.13;;
12990;SDS011;6560;57.692;11.958;2022-11-14T01:54:14;6.50;;;3.80;;
12990;SDS011;6560;57.692;11.958;2022-11-14T01:56:46;1.80;;;1.43;;
12990;SDS011;6560;57.692;11.958;2022-11-14T01:59:19;1.33;;;1.20;;
12990;SDS011;6560;57.692;11.958;2022-11-14T02:01:50;1.50;;;1.03;;
12990;SDS011;6560;57.692;11.958;2022-11-14T02:04:22;2.20;;;1.13;;
12990;SDS011;6560;57.692;11.958;2022-11-14T02:06:52;0.90;;;0.60;;
12990;SDS011;6560;57.692;11.958;2022-11-14T02:09:21;5.70;;;1.30;;
12990;SDS011;6560;57.692;11.958;2022-11-14T02:11:47;1.57;;;1.07;;
12990;SDS011;6560;57.692;11.958;2022-11-14T02:14:14;1.27;;;0.83;;
12990;SDS011;6560;57.692;11.958;2022-11-14T02:16:40;3.20;;;1.00;;
12990;SDS011;6560;57.692;11.958;2022-11-14T02:19:06;3.70;;;0.70;;
12990;SDS011;6560;57.692;11.958;2022-11-14T02:21:33;0.87;;;0.80;;
12990;SDS011;6560;57.692;11.958;2022-11-14T02:23:58;1.73;;;1.10;;
12990;SDS011;6560;57.692;11.958;2022-11-14T02:26:24;1.40;;;0.77;;
12990;SDS011;6560;57.692;11.958;2022-11-14T02:28:49;1.43;;;0.77;;
12990;SDS011;6560;57.692;11.958;2022-11-14T02:31:15;0.80;;;0.60;;
12990;SDS011;6560;57.692;11.958;2022-11-14T02:33:41;0.50;;;0.50;;
12990;SDS011;6560;57.692;11.958;2022-11-14T02:36:06;1.17;;;0.63;;
12990;SDS011;6560;57.692;11.958;2022-11-14T02:38:32;3.43;;;0.87;;
12990;SDS011;6560;57.692;11.958;2022-11-14T02:40:58;0.83;;;0.70;;
12990;SDS011;6560;57.692;11.958;2022-11-14T02:43:24;0.30;;;0.30;;
12990;SDS011;6560;57.692;11.958;2022-11-14T02:45:50;0.50;;;0.50;;
12990;SDS011;6560;57.692;11.958;2022-11-14T02:48:15;0.40;;;0.40;;
12990;SDS011;6560;57.692;11.958;2022-11-14T02:50:41;2.70;;;0.70;;
12990;SDS011;6560;57.692;11.958;2022-11-14T02:53:06;0.53;;;0.53;;
12990;SDS011;6560;57.692;11.958;2022-11-14T02:55:32;0.83;;;0.70;;
12990;SDS011;6560;57.692;11.958;2022-11-14T02:57:57;0.53;;;0.47;;
12990;SDS011;6560;57.692;11.958;2022-11-14T03:00:23;1.57;;;0.57;;
12990;SDS011;6560;57.692;11.958;2022-11-14T03:02:48;0.40;;;0.40;;
12990;SDS011;6560;57.692;11.958;2022-11-14T03:05:14;0.53;;;0.53;;
12990;SDS011;6560;57.692;11.958;2022-11-14T03:07:39;0.37;;;0.37;;
12990;SDS011;6560;57.692;11.958;2022-11-14T03:10:05;0.60;;;0.60;;
12990;SDS011;6560;57.692;11.958;2022-11-14T03:12:31;0.37;;;0.37;;
12990;SDS011;6560;57.692;11.958;2022-11-14T03:14:57;2.93;;;0.70;;
12990;SDS011;6560;57.692;11.958;2022-11-14T03:17:22;1.00;;;0.70;;
12990;SDS011;6560;57.692;11.958;2022-11-14T03:19:48;0.97;;;0.67;;
12990;SDS011;6560;57.692;11.958;2022-11-14T03:22:14;0.30;;;0.30;;
12990;SDS011;6560;57.692;11.958;2022-11-14T03:24:40;0.40;;;0.37;;
12990;SDS011;6560;57.692;11.958;2022-11-14T03:27:05;1.47;;;0.50;;
12990;SDS011;6560;57.692;11.958;2022-11-14T03:29:31;1.77;;;0.60;;
12990;SDS011;6560;57.692;11.958;2022-11-14T03:31:56;2.13;;;0.50;;
12990;SDS011;6560;57.692;11.958;2022-11-14T03:34:21;0.50;;;0.30;;
12990;SDS011;6560;57.692;11.958;2022-11-14T03:36:47;0.60;;;0.60;;
12990;SDS011;6560;57.692;11.958;2022-11-14T03:39:12;1.10;;;0.60;;
12990;SDS011;6560;57.692;11.958;2022-11-14T03:41:38;0.40;;;0.40;;
12990;SDS011;6560;57.692;11.958;2022-11-14T03:44:03;0.83;;;0.77;;
12990;SDS011;6560;57.692;11.958;2022-11-14T03:46:29;1.10;;;0.77;;
12990;SDS011;6560;57.692;11.958;2022-11-14T03:48:54;3.97;;;0.80;;
12990;SDS011;6560;57.692;11.958;2022-11-14T03:51:19;3.73;;;1.20;;
12990;SDS011;6560;57.692;11.958;2022-11-14T03:53:45;2.70;;;0.97;;
12990;SDS011;6560;57.692;11.958;2022-11-14T03:56:10;2.27;;;1.10;;
12990;SDS011;6560;57.692;11.958;2022-11-14T03:58:36;1.43;;;1.13;;
12990;SDS011;6560;57.692;11.958;2022-11-14T04:01:01;1.13;;;0.87;;
12990;SDS011;6560;57.692;11.958;2022-11-14T04:03:27;1.00;;;0.80;;
12990;SDS011;6560;57.692;11.958;2022-11-14T04:05:53;2.60;;;0.90;;
12990;SDS011;6560;57.692;11.958;2022-11-14T04:08:18;1.40;;;0.50;;
12990;SDS011;6560;57.692;11.958;2022-11-14T04:10:47;1.57;;;0.60;;
12990;SDS011;6560;57.692;11.958;2022-11-14T04:13:13;0.90;;;0.80;;
12990;SDS011;6560;57.692;11.958;2022-11-14T04:15:39;0.50;;;0.50;;
12990;SDS011;6560;57.692;11.958;2022-11-14T04:18:05;4.17;;;1.60;;
12990;SDS011;6560;57.692;11.958;2022-11-14T04:20:30;1.13;;;1.03;;
12990;SDS011;6560;57.692;11.958;2022-11-14T04:22:56;1.53;;;1.30;;
12990;SDS011;6560;57.692;11.958;2022-11-14T04:25:21;1.30;;;1.20;;
12990;SDS011;6560;57.692;11.958;2022-11-14T04:27:47;1.53;;;1.10;;
12990;SDS011;6560;57.692;11.958;2022-11-14T04:30:12;1.03;;;1.00;;
12990;SDS011;6560;57.692;11.958;2022-11-14T04:32:38;2.57;;;1.10;;
12990;SDS011;6560;57.692;11.958;2022-11-14T04:35:03;0.80;;;0.80;;
12990;SDS011;6560;57.692;11.958;2022-11-14T04:37:29;1.53;;;0.80;;
12990;SDS011;6560;57.692;11.958;2022-11-14T04:39:54;0.80;;;0.80;;
12990;SDS011;6560;57.692;11.958;2022-11-14T04:42:26;2.10;;;0.67;;
12990;SDS011;6560;57.692;11.958;2022-11-14T04:44:52;5.60;;;0.60;;
12990;SDS011;6560;57.692;11.958;2022-11-14T04:47:17;0.70;;;0.63;;
12990;SDS011;6560;57.692;11.958;2022-11-14T04:49:43;0.87;;;0.43;;
12990;SDS011;6560;57.692;11.958;2022-11-14T04:52:08;0.97;;;0.40;;
12990;SDS011;6560;57.692;11.958;2022-11-14T04:54:33;0.50;;;0.50;;
12990;SDS011;6560;57.692;11.958;2022-11-14T04:56:59;6.70;;;4.87;;
12990;SDS011;6560;57.692;11.958;2022-11-14T04:59:24;1.00;;;0.70;;
12990;SDS011;6560;57.692;11.958;2022-11-14T05:01:50;0.70;;;0.70;;
12990;SDS011;6560;57.692;11.958;2022-11-14T05:04:16;1.20;;;0.77;;
12990;SDS011;6560;57.692;11.958;2022-11-14T05:06:41;1.43;;;0.57;;
12990;SDS011;6560;57.692;11.958;2022-11-14T05:09:06;0.70;;;0.70;;
12990;SDS011;6560;57.692;11.958;2022-11-14T05:11:32;4.23;;;0.70;;
12990;SDS011;6560;57.692;11.958;2022-11-14T05:13:58;0.60;;;0.50;;
12990;SDS011;6560;57.692;11.958;2022-11-14T05:16:23;1.10;;;0.90;;
12990;SDS011;6560;57.692;11.958;2022-11-14T05:18:51;0.50;;;0.50;;
12990;SDS011;6560;57.692;11.958;2022-11-14T05:21:18;1.83;;;0.60;;
12990;SDS011;6560;57.692;11.958;2022-11-14T05:23:43;0.30;;;0.30;;
12990;SDS011;6560;57.692;11.958;2022-11-14T05:26:10;1.17;;;0.50;;
12990;SDS011;6560;57.692;11.958;2022-11-14T05:28:38;1.70;;;0.70;;
12990;SDS011;6560;57.692;11.958;2022-11-14T05:31:05;1.60;;;0.60;;
12990;SDS011;6560;57.692;11.958;2022-11-14T05:33:32;0.80;;;0.80;;
12990;SDS011;6560;57.692;11.958;2022-11-14T05:36:04;0.60;;;0.57;;
12990;SDS011;6560;57.692;11.958;2022-11-14T05:38:32;0.90;;;0.80;;
12990;SDS011;6560;57.692;11.958;2022-11-14T05:40:58;2.13;;;1.40;;
12990;SDS011;6560;57.692;11.958;2022-11-14T05:43:24;1.10;;;0.70;;
12990;SDS011;6560;57.692;11.958;2022-11-14T05:45:50;1.10;;;0.90;;
12990;SDS011;6560;57.692;11.958;2022-11-14T05:48:15;1.00;;;0.90;;
12990;SDS011;6560;57.692;11.958;2022-11-14T05:50:41;3.40;;;1.30;;
12990;SDS011;6560;57.692;11.958;2022-11-14T05:53:07;1.13;;;1.03;;
12990;SDS011;6560;57.692;11.958;2022-11-14T05:55:32;0.90;;;0.70;;
12990;SDS011;6560;57.692;11.958;2022-11-14T05:57:58;1.60;;;0.50;;
12990;SDS011;6560;57.692;11.958;2022-11-14T06:00:24;1.00;;;0.60;;
12990;SDS011;6560;57.692;11.958;2022-11-14T06:02:51;1.20;;;0.83;;
12990;SDS011;6560;57.692;11.958;2022-11-14T06:05:18;0.70;;;0.70;;
12990;SDS011;6560;57.692;11.958;2022-11-14T06:07:45;0.90;;;0.90;;
12990;SDS011;6560;57.692;11.958;2022-11-14T06:10:11;0.70;;;0.63;;
12990;SDS011;6560;57.692;11.958;2022-11-14T06:12:37;2.60;;;1.20;;
12990;SDS011;6560;57.692;11.958;2022-11-14T06:15:03;0.67;;;0.67;;
12990;SDS011;6560;57.692;11.958;2022-11-14T06:17:29;0.87;;;0.60;;
12990;SDS011;6560;57.692;11.958;2022-11-14T06:19:54;0.93;;;0.70;;
12990;SDS011;6560;57.692;11.958;2022-11-14T06:22:20;1.40;;;0.80;;
12990;SDS011;6560;57.692;11.958;2022-11-14T06:24:45;0.87;;;0.60;;
12990;SDS011;6560;57.692;11.958;2022-11-14T06:27:10;0.30;;;0.30;;
12990;SDS011;6560;57.692;11.958;2022-11-14T06:29:36;0.83;;;0.60;;
12990;SDS011;6560;57.692;11.958;2022-11-14T06:32:01;1.77;;;0.60;;
12990;SDS011;6560;57.692;11.958;2022-11-14T06:34:27;1.07;;;0.80;;
12990;SDS011;6560;57.692;11.958;2022-11-14T06:36:52;0.40;;;0.30;;
12990;SDS011;6560;57.692;11.958;2022-11-14T06:39:18;1.60;;;0.43;;
12990;SDS011;6560;57.692;11.958;2022-11-14T06:41:43;0.97;;;0.40;;
12990;SDS011;6560;57.692;11.958;2022-11-14T06:44:09;0.77;;;0.53;;
12990;SDS011;6560;57.692;11.958;2022-11-14T06:46:34;1.17;;;0.50;;
12990;SDS011;6560;57.692;11.958;2022-11-14T06:49:00;2.63;;;1.10;;
12990;SDS011;6560;57.692;11.958;2022-11-14T06:51:25;1.40;;;0.87;;
12990;SDS011;6560;57.692;11.958;2022-11-14T06:53:51;1.90;;;1.07;;
12990;SDS011;6560;57.692;11.958;2022-11-14T06:56:16;0.70;;;0.67;;
12990;SDS011;6560;57.692;11.958;2022-11-14T06:58:44;0.77;;;0.70;;
12990;SDS011;6560;57.692;11.958;2022-11-14T07:01:13;0.53;;;0.37;;
12990;SDS011;6560;57.692;11.958;2022-11-14T07:03:40;1.17;;;0.77;;
12990;SDS011;6560;57.692;11.958;2022-11-14T07:06:07;3.67;;;0.40;;
12990;SDS011;6560;57.692;11.958;2022-11-14T07:08:35;0.27;;;0.27;;
12990;SDS011;6560;57.692;11.958;2022-11-14T07:11:04;3.57;;;0.37;;
12990;SDS011;6560;57.692;11.958;2022-11-14T07:13:31;0.40;;;0.37;;
12990;SDS011;6560;57.692;11.958;2022-11-14T07:15:58;0.30;;;0.30;;
12990;SDS011;6560;57.692;11.958;2022-11-14T07:18:24;1.40;;;0.20;;
12990;SDS011;6560;57.692;11.958;2022-11-14T07:20:56;0.80;;;0.23;;
12990;SDS011;6560;57.692;11.958;2022-11-14T07:23:22;1.77;;;0.40;;
12990;SDS011;6560;57.692;11.958;2022-11-14T07:25:48;1.73;;;0.60;;
12990;SDS011;6560;57.692;11.958;2022-11-14T07:28:14;0.43;;;0.43;;
12990;SDS011;6560;57.692;11.958;2022-11-14T07:30:40;2.60;;;1.30;;
12990;SDS011;6560;57.692;11.958;2022-11-14T07:33:05;3.23;;;1.30;;
12990;SDS011;6560;57.692;11.958;2022-11-14T07:35:31;1.20;;;0.53;;
12990;SDS011;6560;57.692;11.958;2022-11-14T07:38:00;1.77;;;0.80;;
12990;SDS011;6560;57.692;11.958;2022-11-14T07:40:26;5.47;;;0.80;;
12990;SDS011;6560;57.692;11.958;2022-11-14T07:42:56;7.33;;;0.83;;
12990;SDS011;6560;57.692;11.958;2022-11-14T07:45:25;5.07;;;0.97;;
12990;SDS011;6560;57.692;11.958;2022-11-14T07:47:55;1.07;;;0.57;;
12990;SDS011;6560;57.692;11.958;2022-11-14T07:50:21;1.23;;;0.60;;
12990;SDS011;6560;57.692;11.958;2022-11-14T07:52:51;0.60;;;0.50;;
12990;SDS011;6560;57.692;11.958;2022-11-14T07:55:17;0.50;;;0.43;;
12990;SDS011;6560;57.692;11.958;2022-11-14T07:57:43;0.93;;;0.57;;
12990;SDS011;6560;57.692;11.958;2022-11-14T08:00:09;0.40;;;0.40;;
12990;SDS011;6560;57.692;11.958;2022-11-14T08:02:35;0.20;;;0.20;;
12990;SDS011;6560;57.692;11.958;2022-11-14T08:05:01;0.37;;;0.23;;
12990;SDS011;6560;57.692;11.958;2022-11-14T08:07:26;0.30;;;0.20;;
12990;SDS011;6560;57.692;11.958;2022-11-14T08:09:52;0.40;;;0.30;;
12990;SDS011;6560;57.692;11.958;2022-11-14T08:12:17;0.30;;;0.30;;
12990;SDS011;6560;57.692;11.958;2022-11-14T08:14:43;0.80;;;0.30;;
12990;SDS011;6560;57.692;11.958;2022-11-14T08:17:08;0.50;;;0.47;;
12990;SDS011;6560;57.692;11.958;2022-11-14T08:19:34;0.30;;;0.30;;
12990;SDS011;6560;57.692;11.958;2022-11-14T08:21:59;0.70;;;0.60;;
12990;SDS011;6560;57.692;11.958;2022-11-14T08:24:25;2.90;;;0.63;;
12990;SDS011;6560;57.692;11.958;2022-11-14T08:26:53;4.00;;;0.90;;
12990;SDS011;6560;57.692;11.958;2022-11-14T08:29:24;3.77;;;1.47;;
12990;SDS011;6560;57.692;11.958;2022-11-14T08:31:50;6.77;;;1.03;;
12990;SDS011;6560;57.692;11.958;2022-11-14T08:34:15;2.50;;;0.93;;
12990;SDS011;6560;57.692;11.958;2022-11-14T08:36:41;1.57;;;1.10;;
12990;SDS011;6560;57.692;11.958;2022-11-14T08:39:06;3.13;;;1.40;;
12990;SDS011;6560;57.692;11.958;2022-11-14T08:41:32;2.27;;;1.50;;
12990;SDS011;6560;57.692;11.958;2022-11-14T08:43:57;2.23;;;1.20;;
12990;SDS011;6560;57.692;11.958;2022-11-14T08:46:23;1.23;;;1.13;;
12990;SDS011;6560;57.692;11.958;2022-11-14T08:48:49;2.17;;;1.07;;
12990;SDS011;6560;57.692;11.958;2022-11-14T08:51:14;2.00;;;1.20;;
12990;SDS011;6560;57.692;11.958;2022-11-14T08:53:40;2.00;;;1.33;;
12990;SDS011;6560;57.692;11.958;2022-11-14T08:56:12;3.73;;;2.67;;
12990;SDS011;6560;57.692;11.958;2022-11-14T08:58:37;1.90;;;1.23;;
12990;SDS011;6560;57.692;11.958;2022-11-14T09:01:04;1.93;;;1.70;;
12990;SDS011;6560;57.692;11.958;2022-11-14T09:03:31;1.43;;;1.30;;
12990;SDS011;6560;57.692;11.958;2022-11-14T09:05:57;1.77;;;1.30;;
12990;SDS011;6560;57.692;11.958;2022-11-14T09:08:23;1.33;;;1.20;;
12990;SDS011;6560;57.692;11.958;2022-11-14T09:10:49;2.40;;;1.73;;
12990;SDS011;6560;57.692;11.958;2022-11-14T09:13:14;1.10;;;1.00;;
12990;SDS011;6560;57.692;11.958;2022-11-14T09:15:40;1.90;;;1.40;;
12990;SDS011;6560;57.692;11.958;2022-11-14T09:18:07;1.23;;;1.00;;
12990;SDS011;6560;57.692;11.958;2022-11-14T09:20:34;1.40;;;1.30;;
12990;SDS011;6560;57.692;11.958;2022-11-14T09:23:00;3.83;;;1.70;;
12990;SDS011;6560;57.692;11.958;2022-11-14T09:25:26;3.27;;;1.70;;
12990;SDS011;6560;57.692;11.958;2022-11-14T09:27:53;2.43;;;1.93;;
12990;SDS011;6560;57.692;11.958;2022-11-14T09:30:18;2.70;;;1.53;;
12990;SDS011;6560;57.692;11.958;2022-11-14T09:32:44;2.40;;;1.60;;
12990;SDS011;6560;57.692;11.958;2022-11-14T09:35:10;3.53;;;2.07;;
12990;SDS011;6560;57.692;11.958;2022-11-14T09:37:37;3.93;;;2.33;;
12990;SDS011;6560;57.692;11.958;2022-11-14T09:40:03;2.40;;;2.20;;
12990;SDS011;6560;57.692;11.958;2022-11-14T09:45:33;2.77;;;1.87;;
12990;SDS011;6560;57.692;11.958;2022-11-14T09:48:21;2.53;;;1.63;;
12990;SDS011;6560;57.692;11.958;2022-11-14T09:51:14;2.33;;;2.13;;
12990;SDS011;6560;57.692;11.958;2022-11-14T09:56:42;3.30;;;2.67;;
12990;SDS011;6560;57.692;11.958;2022-11-14T09:59:09;2.57;;;1.80;;
12990;SDS011;6560;57.692;11.958;2022-11-14T10:09:57;6.27;;;2.53;;
12990;SDS011;6560;57.692;11.958;2022-11-14T10:12:59;3.70;;;2.47;;
12990;SDS011;6560;57.692;11.958;2022-11-14T10:15:35;2.57;;;2.10;;
12990;SDS011;6560;57.692;11.958;2022-11-14T10:20:43;3.70;;;2.00;;
12990;SDS011;6560;57.692;11.958;2022-11-14T10:29:03;2.60;;;2.33;;
12990;SDS011;6560;57.692;11.958;2022-11-14T10:34:45;4.70;;;2.73;;
12990;SDS011;6560;57.692;11.958;2022-11-14T10:39:51;2.57;;;2.10;;
12990;SDS011;6560;57.692;11.958;2022-11-14T10:45:06;3.40;;;2.20;;
12990;SDS011;6560;57.692;11.958;2022-11-14T10:47:37;2.30;;;2.10;;
12990;SDS011;6560;57.692;11.958;2022-11-14T10:50:15;4.13;;;2.60;;
12990;SDS011;6560;57.692;11.958;2022-11-14T10:52:44;4.27;;;2.20;;
12990;SDS011;6560;57.692;11.958;2022-11-14T10:55:13;3.10;;;2.80;;
12990;SDS011;6560;57.692;11.958;2022-11-14T10:57:41;5.57;;;2.87;;
12990;SDS011;6560;57.692;11.958;2022-11-14T11:00:13;3.93;;;2.30;;
12990;SDS011;6560;57.692;11.958;2022-11-14T11:02:49;3.10;;;2.60;;
12990;SDS011;6560;57.692;11.958;2022-11-14T11:05:23;3.87;;;2.17;;
12990;SDS011;6560;57.692;11.958;2022-11-14T11:07:50;3.43;;;2.00;;
12990;SDS011;6560;57.692;11.958;2022-11-14T11:10:34;3.37;;;1.97;;
12990;SDS011;6560;57.692;11.958;2022-11-14T11:13:39;5.50;;;2.30;;
12990;SDS011;6560;57.692;11.958;2022-11-14T11:16:27;5.43;;;2.10;;
12990;SDS011;6560;57.692;11.958;2022-11-14T11:18:53;2.73;;;2.20;;
12990;SDS011;6560;57.692;11.958;2022-11-14T11:21:48;6.43;;;2.57;;
12990;SDS011;6560;57.692;11.958;2022-11-14T11:24:34;4.33;;;2.87;;
12990;SDS011;6560;57.692;11.958;2022-11-14T11:30:04;4.23;;;2.47;;
12990;SDS011;6560;57.692;11.958;2022-11-14T11:32:32;6.93;;;3.03;;
12990;SDS011;6560;57.692;11.958;2022-11-14T11:34:59;6.03;;;2.70;;
12990;SDS011;6560;57.692;11.958;2022-11-14T11:37:27;4.90;;;2.60;;
12990;SDS011;6560;57.692;11.958;2022-11-14T11:39:57;3.43;;;2.37;;
12990;SDS011;6560;57.692;11.958;2022-11-14T11:42:29;2.93;;;2.13;;
12990;SDS011;6560;57.692;11.958;2022-11-14T11:45:03;6.53;;;2.97;;
12990;SDS011;6560;57.692;11.958;2022-11-14T11:47:36;2.60;;;2.40;;
12990;SDS011;6560;57.692;11.958;2022-11-14T11:50:10;4.63;;;2.47;;
12990;SDS011;6560;57.692;11.958;2022-11-14T11:52:41;4.17;;;2.77;;
12990;SDS011;6560;57.692;11.958;2022-11-14T11:57:56;2.23;;;2.03;;
12990;SDS011;6560;57.692;11.958;2022-11-14T12:00:27;3.13;;;2.70;;
12990;SDS011;6560;57.692;11.958;2022-11-14T12:02:53;3.67;;;2.37;;
12990;SDS011;6560;57.692;11.958;2022-11-14T12:05:27;3.27;;;2.13;;
12990;SDS011;6560;57.692;11.958;2022-11-14T12:08:04;5.00;;;2.60;;
12990;SDS011;6560;57.692;11.958;2022-11-14T12:10:35;3.10;;;2.90;;
12990;SDS011;6560;57.692;11.958;2022-11-14T12:13:11;3.13;;;2.70;;
12990;SDS011;6560;57.692;11.958;2022-11-14T12:15:49;4.40;;;3.10;;
12990;SDS011;6560;57.692;11.958;2022-11-14T12:21:25;6.87;;;3.47;;
12990;SDS011;6560;57.692;11.958;2022-11-14T12:29:19;4.20;;;3.17;;
12990;SDS011;6560;57.692;11.958;2022-11-14T12:31:51;3.83;;;3.27;;
12990;SDS011;6560;57.692;11.958;2022-11-14T12:34:27;4.33;;;3.73;;
12990;SDS011;6560;57.692;11.958;2022-11-14T12:36:57;10.13;;;4.27;;
12990;SDS011;6560;57.692;11.958;2022-11-14T12:39:24;5.80;;;4.53;;
12990;SDS011;6560;57.692;11.958;2022-11-14T12:42:02;6.47;;;3.67;;
12990;SDS011;6560;57.692;11.958;2022-11-14T12:52:03;4.73;;;4.03;;
12990;SDS011;6560;57.692;11.958;2022-11-14T12:54:47;5.43;;;4.07;;
12990;SDS011;6560;57.692;11.958;2022-11-14T12:57:15;7.30;;;3.80;;
12990;SDS011;6560;57.692;11.958;2022-11-14T13:00:06;6.07;;;4.03;;
12990;SDS011;6560;57.692;11.958;2022-11-14T13:02:44;7.30;;;3.93;;
12990;SDS011;6560;57.692;11.958;2022-11-14T13:05:43;4.37;;;3.30;;
12990;SDS011;6560;57.692;11.958;2022-11-14T13:14:28;5.40;;;3.73;;
12990;SDS011;6560;57.692;11.958;2022-11-14T13:17:30;3.97;;;2.90;;
12990;SDS011;6560;57.692;11.958;2022-11-14T13:23:31;3.77;;;3.47;;
12990;SDS011;6560;57.692;11.958;2022-11-14T13:33:51;5.77;;;3.67;;
12990;SDS011;6560;57.692;11.958;2022-11-14T13:47:19;3.80;;;3.13;;
12990;SDS011;6560;57.692;11.958;2022-11-14T13:52:30;4.83;;;3.67;;
12990;SDS011;6560;57.692;11.958;2022-11-14T13:54:57;4.17;;;3.40;;
12990;SDS011;6560;57.692;11.958;2022-11-14T14:00:11;5.23;;;3.60;;
12990;SDS011;6560;57.692;11.958;2022-11-14T14:11:26;5.97;;;4.00;;
12990;SDS011;6560;57.692;11.958;2022-11-14T14:24:53;5.37;;;3.93;;
12990;SDS011;6560;57.692;11.958;2022-11-14T14:27:48;3.93;;;3.53;;
12990;SDS011;6560;57.692;11.958;2022-11-14T14:30:27;4.17;;;3.57;;
12990;SDS011;6560;57.692;11.958;2022-11-14T14:35:31;6.80;;;4.37;;
12990;SDS011;6560;57.692;11.958;2022-11-14T14:37:58;5.47;;;3.90;;
12990;SDS011;6560;57.692;11.958;2022-11-14T14:40:27;5.23;;;4.37;;
12990;SDS011;6560;57.692;11.958;2022-11-14T14:43:04;8.17;;;4.13;;
12990;SDS011;6560;57.692;11.958;2022-11-14T14:45:31;6.53;;;4.23;;
12990;SDS011;6560;57.692;11.958;2022-11-14T14:48:12;6.00;;;4.13;;
12990;SDS011;6560;57.692;11.958;2022-11-14T14:50:47;7.53;;;3.80;;
12990;SDS011;6560;57.692;11.958;2022-11-14T14:53:25;4.73;;;4.20;;
12990;SDS011;6560;57.692;11.958;2022-11-14T14:58:27;4.90;;;4.40;;
12990;SDS011;6560;57.692;11.958;2022-11-14T15:01:04;8.17;;;4.90;;
12990;SDS011;6560;57.692;11.958;2022-11-14T15:03:47;5.10;;;4.57;;
12990;SDS011;6560;57.692;11.958;2022-11-14T15:09:12;4.57;;;4.03;;
12990;SDS011;6560;57.692;11.958;2022-11-14T15:11:39;4.47;;;4.03;;
12990;SDS011;6560;57.692;11.958;2022-11-14T15:14:14;4.17;;;3.63;;
12990;SDS011;6560;57.692;11.958;2022-11-14T15:16:42;5.93;;;3.97;;
12990;SDS011;6560;57.692;11.958;2022-11-14T15:19:12;4.40;;;3.97;;
12990;SDS011;6560;57.692;11.958;2022-11-14T15:21:39;7.17;;;4.60;;
12990;SDS011;6560;57.692;11.958;2022-11-14T15:24:17;5.47;;;4.27;;
12990;SDS011;6560;57.692;11.958;2022-11-14T15:26:44;5.30;;;4.17;;
12990;SDS011;6560;57.692;11.958;2022-11-14T15:29:23;4.57;;;3.80;;
12990;SDS011;6560;57.692;11.958;2022-11-14T15:31:57;9.17;;;4.23;;
12990;SDS011;6560;57.692;11.958;2022-11-14T15:37:04;3.80;;;3.40;;
12990;SDS011;6560;57.692;11.958;2022-11-14T15:39:30;3.80;;;3.50;;
12990;SDS011;6560;57.692;11.958;2022-11-14T15:44:36;4.50;;;3.90;;
12990;SDS011;6560;57.692;11.958;2022-11-14T15:47:01;5.30;;;3.90;;
12990;SDS011;6560;57.692;11.958;2022-11-14T15:49:27;5.03;;;4.30;;
12990;SDS011;6560;57.692;11.958;2022-11-14T15:54:28;5.43;;;4.30;;
12990;SDS011;6560;57.692;11.958;2022-11-14T15:56:58;4.20;;;3.67;;
12990;SDS011;6560;57.692;11.958;2022-11-14T15:59:26;5.63;;;4.37;;
12990;SDS011;6560;57.692;11.958;2022-11-14T16:01:56;4.50;;;4.00;;
12990;SDS011;6560;57.692;11.958;2022-11-14T16:04:30;6.53;;;4.47;;
12990;SDS011;6560;57.692;11.958;2022-11-14T16:06:58;5.10;;;4.40;;
12990;SDS011;6560;57.692;11.958;2022-11-14T16:09:23;4.80;;;4.20;;
12990;SDS011;6560;57.692;11.958;2022-11-14T16:11:49;6.57;;;5.30;;
12990;SDS011;6560;57.692;11.958;2022-11-14T16:14:15;6.00;;;4.97;;
12990;SDS011;6560;57.692;11.958;2022-11-14T16:16:40;4.97;;;4.47;;
12990;SDS011;6560;57.692;11.958;2022-11-14T16:19:06;6.63;;;4.40;;
12990;SDS011;6560;57.692;11.958;2022-11-14T16:21:32;5.47;;;4.33;;
12990;SDS011;6560;57.692;11.958;2022-11-14T16:23:57;6.13;;;4.67;;
12990;SDS011;6560;57.692;11.958;2022-11-14T16:26:23;5.90;;;5.30;;
12990;SDS011;6560;57.692;11.958;2022-11-14T16:28:52;7.87;;;5.23;;
12990;SDS011;6560;57.692;11.958;2022-11-14T16:31:18;5.80;;;4.60;;
12990;SDS011;6560;57.692;11.958;2022-11-14T16:33:44;5.67;;;5.20;;
12990;SDS011;6560;57.692;11.958;2022-11-14T16:36:10;7.63;;;4.77;;
12990;SDS011;6560;57.692;11.958;2022-11-14T16:38:36;6.47;;;4.70;;
12990;SDS011;6560;57.692;11.958;2022-11-14T16:41:06;7.30;;;4.23;;
12990;SDS011;6560;57.692;11.958;2022-11-14T16:43:32;8.00;;;5.40;;
12990;SDS011;6560;57.692;11.958;2022-11-14T16:46:01;6.27;;;5.00;;
12990;SDS011;6560;57.692;11.958;2022-11-14T16:48:30;6.80;;;5.10;;
12990;SDS011;6560;57.692;11.958;2022-11-14T16:51:02;6.50;;;5.00;;
12990;SDS011;6560;57.692;11.958;2022-11-14T16:53:28;7.67;;;4.57;;
12990;SDS011;6560;57.692;11.958;2022-11-14T16:55:54;5.70;;;5.13;;
12990;SDS011;6560;57.692;11.958;2022-11-14T16:58:20;6.60;;;4.80;;
12990;SDS011;6560;57.692;11.958;2022-11-14T17:00:46;6.30;;;5.47;;